sensor_id;sensor_type;location;lat;lon;timestamp;P1;durP1;ratioP1;P2;durP2;ratioP2
11396;SDS011;5754;43.726;7.416;2022-12-18T00:00:50;2.17;;;1.47;;
11396;SDS011;5754;43.726;7.416;2022-12-18T00:03:25;2.30;;;1.57;;
11396;SDS011;5754;43.726;7.416;2022-12-18T00:05:59;3.37;;;1.50;;
11396;SDS011;5754;43.726;7.416;2022-12-18T00:08:34;2.13;;;1.20;;
11396;SDS011;5754;43.726;7.416;2022-12-18T00:11:08;3.17;;;1.80;;
11396;SDS011;5754;43.726;7.416;2022-12-18T00:13:45;1.50;;;1.40;;
11396;SDS011;5754;43.726;7.416;2022-12-18T00:16:21;2.00;;;1.23;;
11396;SDS011;5754;43.726;7.416;2022-12-18T00:18:59;2.37;;;1.23;;
11396;SDS011;5754;43.726;7.416;2022-12-18T00:21:34;3.53;;;1.33;;
11396;SDS011;5754;43.726;7.416;2022-12-18T00:24:08;2.47;;;1.33;;
11396;SDS011;5754;43.726;7.416;2022-12-18T00:26:43;3.50;;;1.30;;
11396;SDS011;5754;43.726;7.416;2022-12-18T00:29:18;3.10;;;1.27;;
11396;SDS011;5754;43.726;7.416;2022-12-18T00:31:53;1.63;;;1.40;;
11396;SDS011;5754;43.726;7.416;2022-12-18T00:34:27;2.30;;;1.43;;
11396;SDS011;5754;43.726;7.416;2022-12-18T00:37:01;2.70;;;1.37;;
11396;SDS011;5754;43.726;7.416;2022-12-18T00:39:36;2.40;;;1.30;;
11396;SDS011;5754;43.726;7.416;2022-12-18T00:42:10;2.17;;;1.30;;
11396;SDS011;5754;43.726;7.416;2022-12-18T00:45:04;1.33;;;1.23;;
11396;SDS011;5754;43.726;7.416;2022-12-18T00:47:41;2.27;;;1.50;;
11396;SDS011;5754;43.726;7.416;2022-12-18T00:50:16;1.63;;;1.10;;
11396;SDS011;5754;43.726;7.416;2022-12-18T00:52:50;1.83;;;1.30;;
11396;SDS011;5754;43.726;7.416;2022-12-18T00:55:24;2.33;;;1.40;;
11396;SDS011;5754;43.726;7.416;2022-12-18T00:57:59;2.87;;;1.50;;
11396;SDS011;5754;43.726;7.416;2022-12-18T01:00:34;1.70;;;1.27;;
11396;SDS011;5754;43.726;7.416;2022-12-18T01:03:09;1.53;;;1.10;;
11396;SDS011;5754;43.726;7.416;2022-12-18T01:05:44;1.33;;;1.10;;
11396;SDS011;5754;43.726;7.416;2022-12-18T01:08:18;2.07;;;1.33;;
11396;SDS011;5754;43.726;7.416;2022-12-18T01:10:53;1.97;;;1.40;;
11396;SDS011;5754;43.726;7.416;2022-12-18T01:13:27;2.50;;;1.60;;
11396;SDS011;5754;43.726;7.416;2022-12-18T01:16:02;1.80;;;1.50;;
11396;SDS011;5754;43.726;7.416;2022-12-18T01:18:36;3.73;;;1.63;;
11396;SDS011;5754;43.726;7.416;2022-12-18T01:21:16;4.53;;;1.60;;
11396;SDS011;5754;43.726;7.416;2022-12-18T01:23:51;4.97;;;1.43;;
11396;SDS011;5754;43.726;7.416;2022-12-18T01:26:26;1.90;;;1.40;;
11396;SDS011;5754;43.726;7.416;2022-12-18T01:29:03;2.40;;;1.20;;
11396;SDS011;5754;43.726;7.416;2022-12-18T01:31:37;1.93;;;1.20;;
11396;SDS011;5754;43.726;7.416;2022-12-18T01:34:12;3.00;;;1.40;;
11396;SDS011;5754;43.726;7.416;2022-12-18T01:36:47;3.37;;;1.40;;
11396;SDS011;5754;43.726;7.416;2022-12-18T01:39:22;2.77;;;1.40;;
11396;SDS011;5754;43.726;7.416;2022-12-18T01:41:57;1.77;;;1.30;;
11396;SDS011;5754;43.726;7.416;2022-12-18T01:49:03;1.17;;;1.03;;
11396;SDS011;5754;43.726;7.416;2022-12-18T01:51:37;2.80;;;1.33;;
11396;SDS011;5754;43.726;7.416;2022-12-18T01:54:12;3.40;;;1.27;;
11396;SDS011;5754;43.726;7.416;2022-12-18T01:56:46;2.33;;;1.40;;
11396;SDS011;5754;43.726;7.416;2022-12-18T01:59:21;1.73;;;1.13;;
11396;SDS011;5754;43.726;7.416;2022-12-18T02:01:55;1.57;;;1.40;;
11396;SDS011;5754;43.726;7.416;2022-12-18T02:04:31;2.50;;;1.23;;
11396;SDS011;5754;43.726;7.416;2022-12-18T02:07:23;1.43;;;1.20;;
11396;SDS011;5754;43.726;7.416;2022-12-18T02:10:00;1.93;;;1.20;;
11396;SDS011;5754;43.726;7.416;2022-12-18T02:12:53;2.80;;;1.30;;
11396;SDS011;5754;43.726;7.416;2022-12-18T02:15:39;2.30;;;1.17;;
11396;SDS011;5754;43.726;7.416;2022-12-18T02:18:22;1.90;;;1.20;;
11396;SDS011;5754;43.726;7.416;2022-12-18T02:21:11;2.70;;;1.20;;
11396;SDS011;5754;43.726;7.416;2022-12-18T02:23:51;3.97;;;1.33;;
11396;SDS011;5754;43.726;7.416;2022-12-18T02:29:22;4.53;;;1.10;;
11396;SDS011;5754;43.726;7.416;2022-12-18T02:32:01;1.43;;;1.10;;
11396;SDS011;5754;43.726;7.416;2022-12-18T02:34:38;1.67;;;1.20;;
11396;SDS011;5754;43.726;7.416;2022-12-18T02:37:15;3.13;;;1.13;;
11396;SDS011;5754;43.726;7.416;2022-12-18T02:39:51;1.70;;;1.13;;
11396;SDS011;5754;43.726;7.416;2022-12-18T02:42:28;2.60;;;1.50;;
11396;SDS011;5754;43.726;7.416;2022-12-18T02:45:02;1.63;;;1.20;;
11396;SDS011;5754;43.726;7.416;2022-12-18T02:47:38;1.70;;;1.30;;
11396;SDS011;5754;43.726;7.416;2022-12-18T02:54:49;2.70;;;1.10;;
11396;SDS011;5754;43.726;7.416;2022-12-18T02:57:42;2.50;;;1.40;;
11396;SDS011;5754;43.726;7.416;2022-12-18T03:00:18;4.27;;;1.30;;
11396;SDS011;5754;43.726;7.416;2022-12-18T03:02:59;3.97;;;1.40;;
11396;SDS011;5754;43.726;7.416;2022-12-18T03:05:41;2.87;;;1.50;;
11396;SDS011;5754;43.726;7.416;2022-12-18T03:08:22;1.67;;;1.27;;
11396;SDS011;5754;43.726;7.416;2022-12-18T03:11:02;2.10;;;1.20;;
11396;SDS011;5754;43.726;7.416;2022-12-18T03:13:41;4.90;;;1.73;;
11396;SDS011;5754;43.726;7.416;2022-12-18T03:16:23;2.93;;;1.60;;
11396;SDS011;5754;43.726;7.416;2022-12-18T03:19:01;4.60;;;1.60;;
11396;SDS011;5754;43.726;7.416;2022-12-18T03:21:56;4.87;;;1.43;;
11396;SDS011;5754;43.726;7.416;2022-12-18T03:24:32;3.03;;;1.20;;
11396;SDS011;5754;43.726;7.416;2022-12-18T03:27:09;1.23;;;1.10;;
11396;SDS011;5754;43.726;7.416;2022-12-18T03:29:50;2.37;;;1.43;;
11396;SDS011;5754;43.726;7.416;2022-12-18T03:32:31;1.43;;;1.17;;
11396;SDS011;5754;43.726;7.416;2022-12-18T03:35:09;1.40;;;1.27;;
11396;SDS011;5754;43.726;7.416;2022-12-18T03:37:44;2.50;;;1.23;;
11396;SDS011;5754;43.726;7.416;2022-12-18T03:40:20;2.20;;;1.30;;
11396;SDS011;5754;43.726;7.416;2022-12-18T03:42:59;1.90;;;1.20;;
11396;SDS011;5754;43.726;7.416;2022-12-18T03:45:46;3.23;;;1.40;;
11396;SDS011;5754;43.726;7.416;2022-12-18T03:48:27;3.60;;;1.27;;
11396;SDS011;5754;43.726;7.416;2022-12-18T03:51:10;2.30;;;1.07;;
11396;SDS011;5754;43.726;7.416;2022-12-18T03:53:58;2.87;;;1.30;;
11396;SDS011;5754;43.726;7.416;2022-12-18T03:56:38;2.30;;;1.30;;
11396;SDS011;5754;43.726;7.416;2022-12-18T03:59:15;1.53;;;1.00;;
11396;SDS011;5754;43.726;7.416;2022-12-18T04:01:50;1.17;;;1.00;;
11396;SDS011;5754;43.726;7.416;2022-12-18T04:04:27;2.13;;;1.20;;
11396;SDS011;5754;43.726;7.416;2022-12-18T04:07:05;3.77;;;1.37;;
11396;SDS011;5754;43.726;7.416;2022-12-18T04:09:40;1.47;;;1.10;;
11396;SDS011;5754;43.726;7.416;2022-12-18T04:12:16;2.47;;;1.50;;
11396;SDS011;5754;43.726;7.416;2022-12-18T04:14:51;2.33;;;1.07;;
11396;SDS011;5754;43.726;7.416;2022-12-18T04:17:28;2.57;;;1.23;;
11396;SDS011;5754;43.726;7.416;2022-12-18T04:20:04;3.00;;;1.23;;
11396;SDS011;5754;43.726;7.416;2022-12-18T04:22:38;1.23;;;1.13;;
11396;SDS011;5754;43.726;7.416;2022-12-18T04:25:12;1.37;;;1.17;;
11396;SDS011;5754;43.726;7.416;2022-12-18T04:27:58;1.60;;;0.90;;
11396;SDS011;5754;43.726;7.416;2022-12-18T04:30:32;1.93;;;1.13;;
11396;SDS011;5754;43.726;7.416;2022-12-18T04:33:12;2.57;;;1.10;;
11396;SDS011;5754;43.726;7.416;2022-12-18T04:35:50;1.47;;;1.10;;
11396;SDS011;5754;43.726;7.416;2022-12-18T04:38:24;2.17;;;1.10;;
11396;SDS011;5754;43.726;7.416;2022-12-18T04:41:05;1.47;;;1.00;;
11396;SDS011;5754;43.726;7.416;2022-12-18T04:43:40;1.20;;;1.10;;
11396;SDS011;5754;43.726;7.416;2022-12-18T04:46:15;1.20;;;0.90;;
11396;SDS011;5754;43.726;7.416;2022-12-18T04:48:49;1.10;;;0.90;;
11396;SDS011;5754;43.726;7.416;2022-12-18T04:51:23;1.00;;;0.90;;
11396;SDS011;5754;43.726;7.416;2022-12-18T04:53:59;1.10;;;1.00;;
11396;SDS011;5754;43.726;7.416;2022-12-18T04:56:33;1.63;;;1.10;;
11396;SDS011;5754;43.726;7.416;2022-12-18T04:59:08;2.30;;;1.23;;
11396;SDS011;5754;43.726;7.416;2022-12-18T05:01:42;2.93;;;1.00;;
11396;SDS011;5754;43.726;7.416;2022-12-18T05:04:17;1.20;;;0.90;;
11396;SDS011;5754;43.726;7.416;2022-12-18T05:06:51;1.03;;;0.93;;
11396;SDS011;5754;43.726;7.416;2022-12-18T05:09:26;1.30;;;1.07;;
11396;SDS011;5754;43.726;7.416;2022-12-18T05:12:00;1.17;;;0.87;;
11396;SDS011;5754;43.726;7.416;2022-12-18T05:14:34;1.87;;;1.10;;
11396;SDS011;5754;43.726;7.416;2022-12-18T05:17:08;1.43;;;1.00;;
11396;SDS011;5754;43.726;7.416;2022-12-18T05:19:43;1.37;;;1.00;;
11396;SDS011;5754;43.726;7.416;2022-12-18T05:22:17;3.30;;;1.33;;
11396;SDS011;5754;43.726;7.416;2022-12-18T05:24:52;1.30;;;1.10;;
11396;SDS011;5754;43.726;7.416;2022-12-18T05:27:27;1.27;;;1.17;;
11396;SDS011;5754;43.726;7.416;2022-12-18T05:30:01;1.20;;;1.10;;
11396;SDS011;5754;43.726;7.416;2022-12-18T05:32:36;1.27;;;1.00;;
11396;SDS011;5754;43.726;7.416;2022-12-18T05:35:12;2.60;;;1.03;;
11396;SDS011;5754;43.726;7.416;2022-12-18T05:37:47;1.00;;;0.90;;
11396;SDS011;5754;43.726;7.416;2022-12-18T05:40:21;2.37;;;1.03;;
11396;SDS011;5754;43.726;7.416;2022-12-18T05:42:56;2.37;;;1.20;;
11396;SDS011;5754;43.726;7.416;2022-12-18T05:45:30;1.97;;;1.10;;
11396;SDS011;5754;43.726;7.416;2022-12-18T05:48:05;1.40;;;1.00;;
11396;SDS011;5754;43.726;7.416;2022-12-18T05:50:40;1.50;;;1.00;;
11396;SDS011;5754;43.726;7.416;2022-12-18T05:53:16;1.37;;;1.07;;
11396;SDS011;5754;43.726;7.416;2022-12-18T05:55:50;2.63;;;1.00;;
11396;SDS011;5754;43.726;7.416;2022-12-18T05:58:25;3.10;;;1.40;;
11396;SDS011;5754;43.726;7.416;2022-12-18T06:01:06;1.10;;;1.00;;
11396;SDS011;5754;43.726;7.416;2022-12-18T06:03:40;1.30;;;1.20;;
11396;SDS011;5754;43.726;7.416;2022-12-18T06:06:20;1.33;;;1.00;;
11396;SDS011;5754;43.726;7.416;2022-12-18T06:08:55;1.40;;;1.00;;
11396;SDS011;5754;43.726;7.416;2022-12-18T06:11:30;4.10;;;1.10;;
11396;SDS011;5754;43.726;7.416;2022-12-18T06:14:05;2.47;;;1.10;;
11396;SDS011;5754;43.726;7.416;2022-12-18T06:16:40;2.87;;;1.00;;
11396;SDS011;5754;43.726;7.416;2022-12-18T06:19:15;0.87;;;0.87;;
11396;SDS011;5754;43.726;7.416;2022-12-18T06:21:49;2.63;;;0.90;;
11396;SDS011;5754;43.726;7.416;2022-12-18T06:24:24;1.20;;;0.97;;
11396;SDS011;5754;43.726;7.416;2022-12-18T06:26:59;1.33;;;1.00;;
11396;SDS011;5754;43.726;7.416;2022-12-18T06:29:34;2.80;;;1.00;;
11396;SDS011;5754;43.726;7.416;2022-12-18T06:32:08;1.30;;;1.20;;
11396;SDS011;5754;43.726;7.416;2022-12-18T06:34:42;0.97;;;0.90;;
11396;SDS011;5754;43.726;7.416;2022-12-18T06:37:17;1.00;;;0.90;;
11396;SDS011;5754;43.726;7.416;2022-12-18T06:39:52;1.17;;;1.07;;
11396;SDS011;5754;43.726;7.416;2022-12-18T06:42:28;1.37;;;0.97;;
11396;SDS011;5754;43.726;7.416;2022-12-18T06:45:02;1.60;;;1.20;;
11396;SDS011;5754;43.726;7.416;2022-12-18T06:47:36;2.10;;;1.20;;
11396;SDS011;5754;43.726;7.416;2022-12-18T06:52:53;1.27;;;0.90;;
11396;SDS011;5754;43.726;7.416;2022-12-18T06:55:28;1.30;;;1.10;;
11396;SDS011;5754;43.726;7.416;2022-12-18T06:58:02;1.20;;;1.03;;
11396;SDS011;5754;43.726;7.416;2022-12-18T07:00:36;1.33;;;1.13;;
11396;SDS011;5754;43.726;7.416;2022-12-18T07:03:11;1.00;;;1.00;;
11396;SDS011;5754;43.726;7.416;2022-12-18T07:05:45;1.47;;;1.10;;
11396;SDS011;5754;43.726;7.416;2022-12-18T07:08:20;1.73;;;1.20;;
11396;SDS011;5754;43.726;7.416;2022-12-18T07:10:54;1.20;;;1.10;;
11396;SDS011;5754;43.726;7.416;2022-12-18T07:13:28;1.23;;;1.13;;
11396;SDS011;5754;43.726;7.416;2022-12-18T07:16:04;2.97;;;2.03;;
11396;SDS011;5754;43.726;7.416;2022-12-18T07:18:40;2.77;;;1.47;;
11396;SDS011;5754;43.726;7.416;2022-12-18T07:21:16;1.50;;;1.30;;
11396;SDS011;5754;43.726;7.416;2022-12-18T07:23:51;4.07;;;1.50;;
11396;SDS011;5754;43.726;7.416;2022-12-18T07:26:26;1.93;;;1.60;;
11396;SDS011;5754;43.726;7.416;2022-12-18T07:29:00;2.23;;;1.50;;
11396;SDS011;5754;43.726;7.416;2022-12-18T07:31:34;4.40;;;1.30;;
11396;SDS011;5754;43.726;7.416;2022-12-18T07:34:12;1.73;;;1.33;;
11396;SDS011;5754;43.726;7.416;2022-12-18T07:36:47;4.57;;;1.40;;
11396;SDS011;5754;43.726;7.416;2022-12-18T07:39:21;1.77;;;1.13;;
11396;SDS011;5754;43.726;7.416;2022-12-18T07:41:55;1.10;;;1.00;;
11396;SDS011;5754;43.726;7.416;2022-12-18T07:44:48;1.80;;;1.20;;
11396;SDS011;5754;43.726;7.416;2022-12-18T07:47:22;1.73;;;1.30;;
11396;SDS011;5754;43.726;7.416;2022-12-18T07:49:57;2.07;;;1.33;;
11396;SDS011;5754;43.726;7.416;2022-12-18T07:52:31;4.07;;;1.50;;
11396;SDS011;5754;43.726;7.416;2022-12-18T07:55:06;1.77;;;1.50;;
11396;SDS011;5754;43.726;7.416;2022-12-18T07:57:40;1.70;;;1.60;;
11396;SDS011;5754;43.726;7.416;2022-12-18T08:00:22;1.87;;;1.30;;
11396;SDS011;5754;43.726;7.416;2022-12-18T08:02:57;1.60;;;0.97;;
11396;SDS011;5754;43.726;7.416;2022-12-18T08:05:32;1.20;;;1.10;;
11396;SDS011;5754;43.726;7.416;2022-12-18T08:08:07;2.83;;;1.40;;
11396;SDS011;5754;43.726;7.416;2022-12-18T08:10:42;1.97;;;1.40;;
11396;SDS011;5754;43.726;7.416;2022-12-18T08:13:16;2.10;;;1.60;;
11396;SDS011;5754;43.726;7.416;2022-12-18T08:16:04;1.60;;;1.20;;
11396;SDS011;5754;43.726;7.416;2022-12-18T08:18:39;1.23;;;0.83;;
11396;SDS011;5754;43.726;7.416;2022-12-18T08:21:15;0.80;;;0.80;;
11396;SDS011;5754;43.726;7.416;2022-12-18T08:23:50;1.12;;;0.93;;
11396;SDS011;5754;43.726;7.416;2022-12-18T08:26:25;2.03;;;1.37;;
11396;SDS011;5754;43.726;7.416;2022-12-18T08:29:00;1.48;;;1.00;;
11396;SDS011;5754;43.726;7.416;2022-12-18T08:31:35;2.00;;;1.20;;
11396;SDS011;5754;43.726;7.416;2022-12-18T08:34:09;1.20;;;1.10;;
11396;SDS011;5754;43.726;7.416;2022-12-18T08:36:45;1.42;;;1.08;;
11396;SDS011;5754;43.726;7.416;2022-12-18T08:39:19;2.67;;;1.33;;
11396;SDS011;5754;43.726;7.416;2022-12-18T08:41:54;4.40;;;2.03;;
11396;SDS011;5754;43.726;7.416;2022-12-18T08:44:46;2.03;;;1.20;;
11396;SDS011;5754;43.726;7.416;2022-12-18T08:47:21;1.85;;;1.20;;
11396;SDS011;5754;43.726;7.416;2022-12-18T08:49:55;1.42;;;0.98;;
11396;SDS011;5754;43.726;7.416;2022-12-18T08:52:31;1.17;;;1.08;;
11396;SDS011;5754;43.726;7.416;2022-12-18T08:55:06;2.12;;;1.52;;
11396;SDS011;5754;43.726;7.416;2022-12-18T08:57:41;1.55;;;1.20;;
11396;SDS011;5754;43.726;7.416;2022-12-18T09:00:15;1.52;;;1.20;;
11396;SDS011;5754;43.726;7.416;2022-12-18T09:02:49;1.50;;;1.10;;
11396;SDS011;5754;43.726;7.416;2022-12-18T09:05:24;2.72;;;1.23;;
11396;SDS011;5754;43.726;7.416;2022-12-18T09:07:58;1.48;;;1.10;;
11396;SDS011;5754;43.726;7.416;2022-12-18T09:10:33;3.05;;;1.17;;
11396;SDS011;5754;43.726;7.416;2022-12-18T09:13:11;2.60;;;1.10;;
11396;SDS011;5754;43.726;7.416;2022-12-18T09:15:50;1.25;;;1.00;;
11396;SDS011;5754;43.726;7.416;2022-12-18T09:18:24;3.03;;;1.00;;
11396;SDS011;5754;43.726;7.416;2022-12-18T09:20:59;2.00;;;1.00;;
11396;SDS011;5754;43.726;7.416;2022-12-18T09:23:34;1.02;;;0.93;;
11396;SDS011;5754;43.726;7.416;2022-12-18T09:26:09;1.20;;;0.90;;
11396;SDS011;5754;43.726;7.416;2022-12-18T09:28:43;0.90;;;0.90;;
11396;SDS011;5754;43.726;7.416;2022-12-18T09:31:18;1.00;;;0.80;;
11396;SDS011;5754;43.726;7.416;2022-12-18T09:33:54;1.42;;;1.08;;
11396;SDS011;5754;43.726;7.416;2022-12-18T09:36:28;0.90;;;0.90;;
11396;SDS011;5754;43.726;7.416;2022-12-18T09:39:03;1.10;;;1.00;;
11396;SDS011;5754;43.726;7.416;2022-12-18T09:41:44;1.08;;;1.00;;
11396;SDS011;5754;43.726;7.416;2022-12-18T09:47:37;1.10;;;1.00;;
11396;SDS011;5754;43.726;7.416;2022-12-18T09:50:27;1.10;;;1.00;;
11396;SDS011;5754;43.726;7.416;2022-12-18T09:53:05;1.70;;;1.08;;
11396;SDS011;5754;43.726;7.416;2022-12-18T09:55:41;3.20;;;1.20;;
11396;SDS011;5754;43.726;7.416;2022-12-18T09:58:20;1.37;;;0.88;;
11396;SDS011;5754;43.726;7.416;2022-12-18T10:00:57;2.83;;;1.40;;
11396;SDS011;5754;43.726;7.416;2022-12-18T10:03:32;1.45;;;1.10;;
11396;SDS011;5754;43.726;7.416;2022-12-18T10:06:08;0.80;;;0.80;;
11396;SDS011;5754;43.726;7.416;2022-12-18T10:08:46;1.05;;;0.90;;
11396;SDS011;5754;43.726;7.416;2022-12-18T10:11:39;1.00;;;0.90;;
11396;SDS011;5754;43.726;7.416;2022-12-18T10:15:39;0.85;;;0.85;;
11396;SDS011;5754;43.726;7.416;2022-12-18T10:18:25;0.77;;;0.77;;
11396;SDS011;5754;43.726;7.416;2022-12-18T10:21:03;0.80;;;0.80;;
11396;SDS011;5754;43.726;7.416;2022-12-18T10:23:58;1.15;;;1.05;;
11396;SDS011;5754;43.726;7.416;2022-12-18T10:26:37;1.15;;;1.05;;
11396;SDS011;5754;43.726;7.416;2022-12-18T10:29:12;1.33;;;0.90;;
11396;SDS011;5754;43.726;7.416;2022-12-18T10:31:47;1.77;;;1.00;;
11396;SDS011;5754;43.726;7.416;2022-12-18T10:34:21;1.12;;;0.90;;
11396;SDS011;5754;43.726;7.416;2022-12-18T10:36:55;0.93;;;0.90;;
11396;SDS011;5754;43.726;7.416;2022-12-18T10:39:30;0.93;;;0.93;;
11396;SDS011;5754;43.726;7.416;2022-12-18T10:42:14;2.00;;;0.88;;
11396;SDS011;5754;43.726;7.416;2022-12-18T10:45:00;1.08;;;0.90;;
11396;SDS011;5754;43.726;7.416;2022-12-18T10:47:36;2.47;;;1.20;;
11396;SDS011;5754;43.726;7.416;2022-12-18T10:50:28;1.17;;;1.05;;
11396;SDS011;5754;43.726;7.416;2022-12-18T10:53:18;1.02;;;0.90;;
11396;SDS011;5754;43.726;7.416;2022-12-18T10:55:53;2.05;;;0.90;;
11396;SDS011;5754;43.726;7.416;2022-12-18T10:58:32;2.42;;;1.00;;
11396;SDS011;5754;43.726;7.416;2022-12-18T11:01:12;2.20;;;1.00;;
11396;SDS011;5754;43.726;7.416;2022-12-18T11:03:58;0.90;;;0.90;;
11396;SDS011;5754;43.726;7.416;2022-12-18T11:06:35;1.17;;;1.07;;
11396;SDS011;5754;43.726;7.416;2022-12-18T11:09:30;1.20;;;1.10;;
11396;SDS011;5754;43.726;7.416;2022-12-18T11:12:14;1.45;;;1.08;;
11396;SDS011;5754;43.726;7.416;2022-12-18T11:14:53;1.35;;;1.25;;
11396;SDS011;5754;43.726;7.416;2022-12-18T11:17:33;1.60;;;1.10;;
11396;SDS011;5754;43.726;7.416;2022-12-18T11:20:42;2.90;;;1.15;;
11396;SDS011;5754;43.726;7.416;2022-12-18T11:23:16;1.40;;;1.30;;
11396;SDS011;5754;43.726;7.416;2022-12-18T11:25:54;1.60;;;1.20;;
11396;SDS011;5754;43.726;7.416;2022-12-18T11:28:34;1.40;;;1.30;;
11396;SDS011;5754;43.726;7.416;2022-12-18T11:31:26;1.37;;;1.20;;
11396;SDS011;5754;43.726;7.416;2022-12-18T11:34:18;1.30;;;1.13;;
11396;SDS011;5754;43.726;7.416;2022-12-18T11:37:00;1.10;;;1.00;;
11396;SDS011;5754;43.726;7.416;2022-12-18T11:39:38;1.27;;;1.00;;
11396;SDS011;5754;43.726;7.416;2022-12-18T11:42:35;2.40;;;1.33;;
11396;SDS011;5754;43.726;7.416;2022-12-18T11:48:21;1.87;;;1.50;;
11396;SDS011;5754;43.726;7.416;2022-12-18T11:50:57;2.37;;;1.20;;
11396;SDS011;5754;43.726;7.416;2022-12-18T11:53:32;2.40;;;1.30;;
11396;SDS011;5754;43.726;7.416;2022-12-18T11:56:26;1.53;;;1.23;;
11396;SDS011;5754;43.726;7.416;2022-12-18T12:03:17;1.30;;;1.20;;
11396;SDS011;5754;43.726;7.416;2022-12-18T12:06:13;1.97;;;1.33;;
11396;SDS011;5754;43.726;7.416;2022-12-18T12:10:28;1.50;;;1.40;;
11396;SDS011;5754;43.726;7.416;2022-12-18T12:18:22;1.30;;;1.20;;
11396;SDS011;5754;43.726;7.416;2022-12-18T12:21:02;1.57;;;1.40;;
11396;SDS011;5754;43.726;7.416;2022-12-18T12:23:50;1.60;;;1.33;;
11396;SDS011;5754;43.726;7.416;2022-12-18T12:26:28;1.30;;;1.20;;
11396;SDS011;5754;43.726;7.416;2022-12-18T12:30:37;1.40;;;1.30;;
11396;SDS011;5754;43.726;7.416;2022-12-18T12:33:37;1.67;;;1.40;;
11396;SDS011;5754;43.726;7.416;2022-12-18T12:36:21;1.93;;;1.73;;
11396;SDS011;5754;43.726;7.416;2022-12-18T12:38:59;3.03;;;2.50;;
11396;SDS011;5754;43.726;7.416;2022-12-18T12:41:35;1.60;;;1.50;;
11396;SDS011;5754;43.726;7.416;2022-12-18T12:44:30;1.63;;;1.50;;
11396;SDS011;5754;43.726;7.416;2022-12-18T12:47:11;1.77;;;1.30;;
11396;SDS011;5754;43.726;7.416;2022-12-18T12:49:48;1.40;;;1.30;;
11396;SDS011;5754;43.726;7.416;2022-12-18T12:52:30;1.20;;;1.10;;
11396;SDS011;5754;43.726;7.416;2022-12-18T12:55:12;1.40;;;1.30;;
11396;SDS011;5754;43.726;7.416;2022-12-18T13:02:29;2.13;;;1.40;;
11396;SDS011;5754;43.726;7.416;2022-12-18T13:05:09;1.93;;;1.50;;
11396;SDS011;5754;43.726;7.416;2022-12-18T13:07:56;1.67;;;1.50;;
11396;SDS011;5754;43.726;7.416;2022-12-18T13:10:33;1.43;;;1.33;;
11396;SDS011;5754;43.726;7.416;2022-12-18T13:13:09;2.40;;;1.37;;
11396;SDS011;5754;43.726;7.416;2022-12-18T13:16:09;1.33;;;1.23;;
11396;SDS011;5754;43.726;7.416;2022-12-18T13:18:50;1.17;;;1.07;;
11396;SDS011;5754;43.726;7.416;2022-12-18T13:21:27;1.77;;;1.30;;
11396;SDS011;5754;43.726;7.416;2022-12-18T13:28:51;1.50;;;1.20;;
11396;SDS011;5754;43.726;7.416;2022-12-18T13:34:46;2.83;;;1.47;;
11396;SDS011;5754;43.726;7.416;2022-12-18T13:37:36;1.23;;;0.97;;
11396;SDS011;5754;43.726;7.416;2022-12-18T13:44:13;1.50;;;1.10;;
11396;SDS011;5754;43.726;7.416;2022-12-18T13:46:56;2.47;;;1.17;;
11396;SDS011;5754;43.726;7.416;2022-12-18T13:49:41;3.10;;;1.27;;
11396;SDS011;5754;43.726;7.416;2022-12-18T13:52:19;1.87;;;1.10;;
11396;SDS011;5754;43.726;7.416;2022-12-18T13:54:55;1.30;;;1.20;;
11396;SDS011;5754;43.726;7.416;2022-12-18T13:57:31;4.17;;;1.10;;
11396;SDS011;5754;43.726;7.416;2022-12-18T14:02:58;1.53;;;1.20;;
11396;SDS011;5754;43.726;7.416;2022-12-18T14:05:36;1.73;;;1.20;;
11396;SDS011;5754;43.726;7.416;2022-12-18T14:08:12;1.93;;;1.10;;
11396;SDS011;5754;43.726;7.416;2022-12-18T14:10:47;1.40;;;1.03;;
11396;SDS011;5754;43.726;7.416;2022-12-18T14:13:33;2.43;;;1.10;;
11396;SDS011;5754;43.726;7.416;2022-12-18T14:16:11;1.53;;;1.00;;
11396;SDS011;5754;43.726;7.416;2022-12-18T14:18:56;1.50;;;1.20;;
11396;SDS011;5754;43.726;7.416;2022-12-18T14:21:33;2.90;;;1.00;;
11396;SDS011;5754;43.726;7.416;2022-12-18T14:24:19;1.67;;;1.13;;
11396;SDS011;5754;43.726;7.416;2022-12-18T14:26:56;3.80;;;1.20;;
11396;SDS011;5754;43.726;7.416;2022-12-18T14:29:47;2.70;;;1.10;;
11396;SDS011;5754;43.726;7.416;2022-12-18T14:32:22;2.50;;;1.03;;
11396;SDS011;5754;43.726;7.416;2022-12-18T14:34:56;3.57;;;1.87;;
11396;SDS011;5754;43.726;7.416;2022-12-18T14:37:31;3.30;;;2.23;;
11396;SDS011;5754;43.726;7.416;2022-12-18T14:40:11;4.07;;;1.47;;
11396;SDS011;5754;43.726;7.416;2022-12-18T14:42:47;2.20;;;1.13;;
11396;SDS011;5754;43.726;7.416;2022-12-18T14:45:38;4.20;;;1.13;;
11396;SDS011;5754;43.726;7.416;2022-12-18T14:48:19;2.27;;;1.30;;
11396;SDS011;5754;43.726;7.416;2022-12-18T14:50:59;2.83;;;1.17;;
11396;SDS011;5754;43.726;7.416;2022-12-18T14:53:35;2.90;;;1.40;;
11396;SDS011;5754;43.726;7.416;2022-12-18T14:56:17;1.30;;;1.00;;
11396;SDS011;5754;43.726;7.416;2022-12-18T14:58:55;2.33;;;1.40;;
11396;SDS011;5754;43.726;7.416;2022-12-18T15:01:37;2.20;;;1.30;;
11396;SDS011;5754;43.726;7.416;2022-12-18T15:04:23;3.00;;;1.57;;
11396;SDS011;5754;43.726;7.416;2022-12-18T15:07:15;2.17;;;1.40;;
11396;SDS011;5754;43.726;7.416;2022-12-18T15:10:51;1.77;;;1.40;;
11396;SDS011;5754;43.726;7.416;2022-12-18T15:13:26;1.57;;;1.40;;
11396;SDS011;5754;43.726;7.416;2022-12-18T15:16:01;1.60;;;1.17;;
11396;SDS011;5754;43.726;7.416;2022-12-18T15:18:38;1.83;;;1.30;;
11396;SDS011;5754;43.726;7.416;2022-12-18T15:21:18;2.13;;;1.40;;
11396;SDS011;5754;43.726;7.416;2022-12-18T15:23:53;3.87;;;1.70;;
11396;SDS011;5754;43.726;7.416;2022-12-18T15:26:30;2.00;;;1.30;;
11396;SDS011;5754;43.726;7.416;2022-12-18T15:29:20;1.73;;;1.13;;
11396;SDS011;5754;43.726;7.416;2022-12-18T15:31:58;1.50;;;1.30;;
11396;SDS011;5754;43.726;7.416;2022-12-18T15:34:33;1.77;;;1.20;;
11396;SDS011;5754;43.726;7.416;2022-12-18T15:37:07;1.63;;;1.13;;
11396;SDS011;5754;43.726;7.416;2022-12-18T15:39:41;1.87;;;1.20;;
11396;SDS011;5754;43.726;7.416;2022-12-18T15:42:16;1.73;;;1.20;;
11396;SDS011;5754;43.726;7.416;2022-12-18T15:45:11;4.03;;;1.50;;
11396;SDS011;5754;43.726;7.416;2022-12-18T15:47:45;2.93;;;1.53;;
11396;SDS011;5754;43.726;7.416;2022-12-18T15:50:20;2.10;;;1.40;;
11396;SDS011;5754;43.726;7.416;2022-12-18T15:52:55;3.97;;;1.63;;
11396;SDS011;5754;43.726;7.416;2022-12-18T15:55:31;8.23;;;5.00;;
11396;SDS011;5754;43.726;7.416;2022-12-18T15:58:24;7.60;;;2.30;;
11396;SDS011;5754;43.726;7.416;2022-12-18T16:00:59;3.50;;;2.00;;
11396;SDS011;5754;43.726;7.416;2022-12-18T16:03:34;2.20;;;1.80;;
11396;SDS011;5754;43.726;7.416;2022-12-18T16:06:08;2.93;;;2.30;;
11396;SDS011;5754;43.726;7.416;2022-12-18T16:08:43;4.27;;;2.23;;
11396;SDS011;5754;43.726;7.416;2022-12-18T16:11:25;3.67;;;2.20;;
11396;SDS011;5754;43.726;7.416;2022-12-18T16:14:15;2.93;;;2.17;;
11396;SDS011;5754;43.726;7.416;2022-12-18T16:16:52;3.30;;;2.03;;
11396;SDS011;5754;43.726;7.416;2022-12-18T16:19:27;3.70;;;2.30;;
11396;SDS011;5754;43.726;7.416;2022-12-18T16:22:02;2.80;;;2.10;;
11396;SDS011;5754;43.726;7.416;2022-12-18T16:24:36;3.53;;;2.00;;
11396;SDS011;5754;43.726;7.416;2022-12-18T16:27:11;3.23;;;2.17;;
11396;SDS011;5754;43.726;7.416;2022-12-18T16:29:45;3.43;;;1.87;;
11396;SDS011;5754;43.726;7.416;2022-12-18T16:32:20;3.70;;;2.33;;
11396;SDS011;5754;43.726;7.416;2022-12-18T16:34:54;3.70;;;2.10;;
11396;SDS011;5754;43.726;7.416;2022-12-18T16:37:33;4.73;;;2.33;;
11396;SDS011;5754;43.726;7.416;2022-12-18T16:40:09;4.50;;;2.60;;
11396;SDS011;5754;43.726;7.416;2022-12-18T16:42:44;5.37;;;3.27;;
11396;SDS011;5754;43.726;7.416;2022-12-18T16:45:19;3.83;;;2.50;;
11396;SDS011;5754;43.726;7.416;2022-12-18T16:47:54;3.77;;;2.70;;
11396;SDS011;5754;43.726;7.416;2022-12-18T16:50:28;4.00;;;2.33;;
11396;SDS011;5754;43.726;7.416;2022-12-18T16:53:03;4.20;;;2.83;;
11396;SDS011;5754;43.726;7.416;2022-12-18T16:55:37;4.90;;;2.50;;
11396;SDS011;5754;43.726;7.416;2022-12-18T16:58:12;2.47;;;1.93;;
11396;SDS011;5754;43.726;7.416;2022-12-18T17:00:46;3.37;;;2.27;;